createdAt,value
2022-09-06T00:00:48.491Z,19.11
2022-09-06T00:01:48.447Z,19.10
2022-09-06T00:02:48.528Z,19.10
2022-09-06T00:03:48.464Z,19.11
2022-09-06T00:04:48.400Z,19.12
2022-09-06T00:05:48.392Z,19.12
2022-09-06T00:06:48.406Z,19.13
2022-09-06T00:07:48.391Z,19.14
2022-09-06T00:08:48.364Z,19.15
2022-09-06T00:09:48.331Z,19.15
2022-09-06T00:10:48.324Z,19.16
2022-09-06T00:11:48.336Z,19.16
2022-09-06T00:12:48.349Z,19.15
2022-09-06T00:13:48.289Z,19.14
2022-09-06T00:14:48.278Z,19.13
2022-09-06T00:15:48.293Z,19.12
2022-09-06T00:16:48.248Z,19.10
2022-09-06T00:17:48.250Z,19.08
2022-09-06T00:18:48.229Z,19.06
2022-09-06T00:19:48.237Z,19.05
2022-09-06T00:20:48.257Z,19.04
2022-09-06T00:21:48.186Z,19.02
2022-09-06T00:22:48.186Z,19.02
2022-09-06T00:23:48.164Z,19.01
2022-09-06T00:24:48.149Z,19.01
2022-09-06T00:25:48.126Z,19.00
2022-09-06T00:26:48.142Z,19.00
2022-09-06T00:27:48.115Z,19.00
2022-09-06T00:28:48.142Z,19.01
2022-09-06T00:29:48.083Z,19.01
2022-09-06T00:30:48.087Z,19.01
2022-09-06T00:31:48.088Z,19.01
2022-09-06T00:32:48.062Z,19.00
2022-09-06T00:33:48.032Z,19.00
2022-09-06T00:34:48.026Z,19.00
2022-09-06T00:35:47.990Z,19.00
2022-09-06T00:36:47.991Z,19.00
2022-09-06T00:37:47.969Z,19.00
2022-09-06T00:38:47.967Z,19.00
2022-09-06T00:39:48.011Z,19.00
2022-09-06T00:40:47.979Z,19.00
2022-09-06T00:41:47.922Z,19.00
2022-09-06T00:42:47.906Z,19.00
2022-09-06T00:43:47.907Z,19.00
2022-09-06T00:44:47.873Z,19.00
2022-09-06T00:45:47.867Z,18.99
2022-09-06T00:46:47.856Z,18.99
2022-09-06T00:47:47.844Z,18.97
2022-09-06T00:48:47.823Z,18.95
2022-09-06T00:49:47.853Z,18.93
2022-09-06T00:50:47.834Z,18.91
2022-09-06T00:51:47.799Z,18.88
2022-09-06T00:52:47.816Z,18.85
2022-09-06T00:53:47.758Z,18.83
2022-09-06T00:54:47.752Z,18.81
2022-09-06T00:55:47.755Z,18.79
2022-09-06T00:56:47.739Z,18.77
2022-09-06T00:57:47.699Z,18.76
2022-09-06T00:58:47.695Z,18.75
2022-09-06T00:59:47.688Z,18.74
2022-09-06T01:00:47.691Z,18.75
2022-09-06T01:01:47.753Z,18.75
2022-09-06T01:02:47.793Z,18.75
2022-09-06T01:03:47.646Z,18.76
2022-09-06T01:04:47.670Z,18.76
2022-09-06T01:05:50.562Z,18.76
2022-09-06T01:06:47.593Z,18.76
2022-09-06T01:07:47.587Z,18.75
2022-09-06T01:08:47.560Z,18.75
2022-09-06T01:09:47.569Z,18.75
2022-09-06T01:10:47.535Z,18.76
2022-09-06T01:11:47.542Z,18.76
2022-09-06T01:12:47.539Z,18.77
2022-09-06T01:13:47.500Z,18.77
2022-09-06T01:14:47.499Z,18.77
2022-09-06T01:15:47.511Z,18.77
2022-09-06T01:16:47.471Z,18.77
2022-09-06T01:17:47.470Z,18.77
2022-09-06T01:18:47.528Z,18.77
2022-09-06T01:19:47.420Z,18.76
2022-09-06T01:20:47.408Z,18.75
2022-09-06T01:21:47.420Z,18.74
2022-09-06T01:22:47.371Z,18.73
2022-09-06T01:23:47.393Z,18.72
2022-09-06T01:24:47.356Z,18.72
2022-09-06T01:25:47.335Z,18.71
2022-09-06T01:26:47.338Z,18.70
2022-09-06T01:27:47.373Z,18.68
2022-09-06T01:28:47.351Z,18.66
2022-09-06T01:29:47.306Z,18.63
2022-09-06T01:30:47.292Z,18.60
2022-09-06T01:31:47.303Z,18.57
2022-09-06T01:32:47.278Z,18.54
2022-09-06T01:33:47.268Z,18.51
2022-09-06T01:34:47.215Z,18.48
2022-09-06T01:35:47.215Z,18.46
2022-09-06T01:37:08.361Z,18.43
2022-09-06T01:37:47.184Z,18.41
2022-09-06T01:38:47.171Z,18.38
2022-09-06T01:39:47.194Z,18.35
2022-09-06T01:40:47.164Z,18.33
2022-09-06T01:41:47.152Z,18.32
2022-09-06T01:42:47.111Z,18.31
2022-09-06T01:43:47.135Z,18.30
2022-09-06T01:44:47.086Z,18.28
2022-09-06T01:45:47.124Z,18.26
2022-09-06T01:46:47.057Z,18.24
2022-09-06T01:47:47.053Z,18.21
2022-09-06T01:48:47.042Z,18.19
2022-09-06T01:49:47.046Z,18.17
2022-09-06T01:50:47.010Z,18.16
2022-09-06T01:51:47.039Z,18.15
2022-09-06T01:52:46.991Z,18.14
2022-09-06T01:53:46.976Z,18.13
2022-09-06T01:54:46.956Z,18.12
2022-09-06T01:55:46.965Z,18.12
2022-09-06T01:56:46.925Z,18.11
2022-09-06T01:57:46.931Z,18.10
2022-09-06T01:58:46.896Z,18.09
2022-09-06T01:59:46.900Z,18.07
2022-09-06T02:00:46.900Z,18.04
2022-09-06T02:01:46.945Z,18.02
2022-09-06T02:02:46.942Z,18.00
2022-09-06T02:03:46.847Z,17.98
2022-09-06T02:04:46.865Z,17.97
2022-09-06T02:05:46.819Z,17.96
2022-09-06T02:06:46.800Z,17.95
2022-09-06T02:07:46.813Z,17.93
2022-09-06T02:08:46.770Z,17.92
2022-09-06T02:09:46.782Z,17.91
2022-09-06T02:10:46.763Z,17.90
2022-09-06T02:11:46.744Z,17.89
2022-09-06T02:12:46.726Z,17.89
2022-09-06T02:13:46.733Z,17.88
2022-09-06T02:14:46.689Z,17.88
2022-09-06T02:15:46.696Z,17.87
2022-09-06T02:16:46.726Z,17.86
2022-09-06T02:17:46.650Z,17.85
2022-09-06T02:18:46.634Z,17.84
2022-09-06T02:19:46.624Z,17.83
2022-09-06T02:20:46.607Z,17.82
2022-09-06T02:21:46.612Z,17.82
2022-09-06T02:22:46.624Z,17.82
2022-09-06T02:23:46.571Z,17.81
2022-09-06T02:24:46.591Z,17.81
2022-09-06T02:25:46.546Z,17.81
2022-09-06T02:26:46.527Z,17.81
2022-09-06T02:27:46.539Z,17.81
2022-09-06T02:28:46.531Z,17.81
2022-09-06T02:29:46.518Z,17.81
2022-09-06T02:30:46.567Z,17.81
2022-09-06T02:31:46.468Z,17.80
2022-09-06T02:32:46.466Z,17.80
2022-09-06T02:33:46.436Z,17.79
2022-09-06T02:34:46.421Z,17.78
2022-09-06T02:35:46.408Z,17.76
2022-09-06T02:36:46.391Z,17.74
2022-09-06T02:37:46.416Z,17.72
2022-09-06T02:38:46.403Z,17.70
2022-09-06T02:39:46.406Z,17.69
2022-09-06T02:40:46.338Z,17.69
2022-09-06T02:41:46.336Z,17.68
2022-09-06T02:42:46.310Z,17.69
2022-09-06T02:43:46.374Z,17.69
2022-09-06T02:44:46.312Z,17.69
2022-09-06T02:45:46.324Z,17.68
2022-09-06T02:46:46.260Z,17.66
2022-09-06T02:47:46.277Z,17.64
2022-09-06T02:48:46.251Z,17.60
2022-09-06T02:49:46.267Z,17.55
2022-09-06T02:50:46.240Z,17.47
2022-09-06T02:51:46.204Z,17.37
2022-09-06T02:52:46.242Z,17.25
2022-09-06T02:53:46.168Z,17.12
2022-09-06T02:54:46.173Z,16.99
2022-09-06T02:55:46.173Z,16.86
2022-09-06T02:56:50.181Z,16.73
2022-09-06T02:57:46.146Z,16.61
2022-09-06T02:58:46.104Z,16.50
2022-09-06T02:59:46.094Z,16.42
2022-09-06T03:00:46.066Z,16.36
2022-09-06T03:01:46.119Z,16.34
2022-09-06T03:02:46.093Z,16.34
2022-09-06T03:03:46.077Z,16.35
2022-09-06T03:04:46.054Z,16.37
2022-09-06T03:05:46.036Z,16.38
2022-09-06T03:06:46.043Z,16.37
2022-09-06T03:07:45.999Z,16.36
2022-09-06T03:08:45.963Z,16.34
2022-09-06T03:09:45.960Z,16.33
2022-09-06T03:10:45.958Z,16.31
2022-09-06T03:11:45.950Z,16.28
2022-09-06T03:12:45.916Z,16.25
2022-09-06T03:13:45.905Z,16.21
2022-09-06T03:14:45.891Z,16.18
2022-09-06T03:15:45.876Z,16.15
2022-09-06T03:16:45.981Z,16.12
2022-09-06T03:17:45.878Z,16.10
2022-09-06T03:18:45.838Z,16.08
2022-09-06T03:19:45.863Z,16.06
2022-09-06T03:20:52.308Z,16.04
2022-09-06T03:21:45.807Z,16.03
2022-09-06T03:22:45.802Z,16.04
2022-09-06T03:23:45.783Z,16.06
2022-09-06T03:24:45.777Z,16.09
2022-09-06T03:25:45.749Z,16.14
2022-09-06T03:26:45.728Z,16.19
2022-09-06T03:27:45.722Z,16.25
2022-09-06T03:28:45.702Z,16.29
2022-09-06T03:29:45.697Z,16.33
2022-09-06T03:30:45.701Z,16.37
2022-09-06T03:31:45.684Z,16.40
2022-09-06T03:32:45.650Z,16.42
2022-09-06T03:33:45.642Z,16.44
2022-09-06T03:34:45.639Z,16.45
2022-09-06T03:35:45.616Z,16.47
2022-09-06T03:36:45.633Z,16.48
2022-09-06T03:37:45.612Z,16.51
2022-09-06T03:38:45.578Z,16.53
2022-09-06T03:39:45.613Z,16.55
2022-09-06T03:40:45.549Z,16.57
2022-09-06T03:41:45.553Z,16.57
2022-09-06T03:42:45.526Z,16.58
2022-09-06T03:43:45.527Z,16.57
2022-09-06T03:44:45.495Z,16.54
2022-09-06T03:45:45.527Z,16.51
2022-09-06T03:46:45.468Z,16.48
2022-09-06T03:47:45.461Z,16.46
2022-09-06T03:48:45.470Z,16.44
2022-09-06T03:49:45.433Z,16.42
2022-09-06T03:50:45.422Z,16.40
2022-09-06T03:51:45.416Z,16.36
2022-09-06T03:52:45.390Z,16.33
2022-09-06T03:53:45.390Z,16.29
2022-09-06T03:54:45.367Z,16.24
2022-09-06T03:55:45.357Z,16.20
2022-09-06T03:56:45.350Z,16.16
2022-09-06T03:57:45.394Z,16.12
2022-09-06T03:58:45.316Z,16.10
2022-09-06T03:59:45.301Z,16.08
2022-09-06T04:00:45.410Z,16.04
2022-09-06T04:01:45.349Z,15.99
2022-09-06T04:02:45.377Z,15.93
2022-09-06T04:03:45.266Z,15.89
2022-09-06T04:04:45.234Z,15.85
2022-09-06T04:05:45.241Z,15.83
2022-09-06T04:06:45.212Z,15.82
2022-09-06T04:07:45.881Z,15.82
2022-09-06T04:08:45.194Z,15.83
2022-09-06T04:09:45.170Z,15.83
2022-09-06T04:10:45.156Z,15.83
2022-09-06T04:11:45.289Z,15.83
2022-09-06T04:12:45.142Z,15.82
2022-09-06T04:13:45.126Z,15.80
2022-09-06T04:14:45.107Z,15.78
2022-09-06T04:15:45.094Z,15.77
2022-09-06T04:16:45.145Z,15.76
2022-09-06T04:17:45.069Z,15.76
2022-09-06T04:18:45.052Z,15.77
2022-09-06T04:19:45.063Z,15.77
2022-09-06T04:20:45.023Z,15.76
2022-09-06T04:21:45.024Z,15.75
2022-09-06T04:22:45.050Z,15.74
2022-09-06T04:23:44.996Z,15.73
2022-09-06T04:24:44.970Z,15.73
2022-09-06T04:25:44.961Z,15.74
2022-09-06T04:26:44.943Z,15.76
2022-09-06T04:27:44.937Z,15.80
2022-09-06T04:28:44.929Z,15.84
2022-09-06T04:29:44.911Z,15.89
2022-09-06T04:30:44.898Z,15.95
2022-09-06T04:31:44.931Z,16.00
2022-09-06T04:32:44.875Z,16.06
2022-09-06T04:33:44.858Z,16.11
2022-09-06T04:34:44.842Z,16.16
2022-09-06T04:35:44.852Z,16.19
2022-09-06T04:36:48.354Z,16.21
2022-09-06T04:37:45.756Z,16.22
2022-09-06T04:38:44.819Z,16.21
2022-09-06T04:39:44.853Z,16.20
2022-09-06T04:40:44.783Z,16.19
2022-09-06T04:41:44.765Z,16.18
2022-09-06T04:42:44.746Z,16.16
2022-09-06T04:43:44.805Z,16.13
2022-09-06T04:44:44.729Z,16.10
2022-09-06T04:45:44.831Z,16.08
2022-09-06T04:46:44.707Z,16.06
2022-09-06T04:47:44.687Z,16.05
2022-09-06T04:48:44.677Z,16.05
2022-09-06T04:49:44.662Z,16.06
2022-09-06T04:50:44.637Z,16.07
2022-09-06T04:51:44.642Z,16.09
2022-09-06T04:52:44.611Z,16.12
2022-09-06T04:53:44.655Z,16.14
2022-09-06T04:54:44.582Z,16.17
2022-09-06T04:55:44.602Z,16.21
2022-09-06T04:56:44.564Z,16.23
2022-09-06T04:57:48.467Z,16.26
2022-09-06T04:58:44.542Z,16.28
2022-09-06T04:59:44.544Z,16.30
2022-09-06T05:00:44.578Z,16.32
2022-09-06T05:01:44.521Z,16.33
2022-09-06T05:02:44.538Z,16.34
2022-09-06T05:03:44.477Z,16.34
2022-09-06T05:04:44.464Z,16.36
2022-09-06T05:05:44.445Z,16.38
2022-09-06T05:06:44.435Z,16.40
2022-09-06T05:07:44.448Z,16.43
2022-09-06T05:08:44.413Z,16.47
2022-09-06T05:09:44.411Z,16.50
2022-09-06T05:10:44.375Z,16.53
2022-09-06T05:11:44.399Z,16.55
2022-09-06T05:12:44.538Z,16.57
2022-09-06T05:13:44.351Z,16.58
2022-09-06T05:14:44.332Z,16.59
2022-09-06T05:15:44.323Z,16.59
2022-09-06T05:16:44.357Z,16.59
2022-09-06T05:17:44.297Z,16.58
2022-09-06T05:18:44.304Z,16.57
2022-09-06T05:19:44.312Z,16.56
2022-09-06T05:20:44.275Z,16.54
2022-09-06T05:21:44.242Z,16.52
2022-09-06T05:22:44.232Z,16.51
2022-09-06T05:23:44.262Z,16.49
2022-09-06T05:24:44.231Z,16.47
2022-09-06T05:25:44.185Z,16.46
2022-09-06T05:26:44.178Z,16.46
2022-09-06T05:27:44.158Z,16.47
2022-09-06T05:28:44.506Z,16.47
2022-09-06T05:29:44.144Z,16.48
2022-09-06T05:30:44.147Z,16.49
2022-09-06T05:31:44.187Z,16.50
2022-09-06T05:32:44.111Z,16.50
2022-09-06T05:33:44.100Z,16.51
2022-09-06T05:34:44.065Z,16.51
2022-09-06T05:35:44.071Z,16.51
2022-09-06T05:36:44.099Z,16.51
2022-09-06T05:37:44.053Z,16.49
2022-09-06T05:38:44.040Z,16.46
2022-09-06T05:39:44.099Z,16.44
2022-09-06T05:40:44.024Z,16.42
2022-09-06T05:41:44.022Z,16.42
2022-09-06T05:42:43.968Z,16.43
2022-09-06T05:43:43.966Z,16.45
2022-09-06T05:44:43.950Z,16.47
2022-09-06T05:45:43.975Z,16.49
2022-09-06T05:46:43.916Z,16.50
2022-09-06T05:47:43.934Z,16.51
2022-09-06T05:48:43.906Z,16.53
2022-09-06T05:49:43.899Z,16.56
2022-09-06T05:50:43.891Z,16.59
2022-09-06T05:51:43.853Z,16.62
2022-09-06T05:52:43.846Z,16.64
2022-09-06T05:53:43.856Z,16.65
2022-09-06T05:54:43.823Z,16.66
2022-09-06T05:55:43.884Z,16.65
2022-09-06T05:56:43.794Z,16.64
2022-09-06T05:57:43.784Z,16.63
2022-09-06T05:58:43.769Z,16.63
2022-09-06T05:59:43.755Z,16.64
2022-09-06T06:00:43.749Z,16.65
2022-09-06T06:01:43.805Z,16.67
2022-09-06T06:02:43.771Z,16.67
2022-09-06T06:03:43.692Z,16.67
2022-09-06T06:04:43.697Z,16.67
2022-09-06T06:05:43.674Z,16.68
2022-09-06T06:06:43.670Z,16.69
2022-09-06T06:07:43.655Z,16.71
2022-09-06T06:08:44.410Z,16.71
2022-09-06T06:09:43.636Z,16.70
2022-09-06T06:10:43.614Z,16.68
2022-09-06T06:11:43.597Z,16.67
2022-09-06T06:12:43.583Z,16.66
2022-09-06T06:13:43.565Z,16.66
2022-09-06T06:14:43.584Z,16.65
2022-09-06T06:15:43.548Z,16.65
2022-09-06T06:16:43.611Z,16.65
2022-09-06T06:17:43.512Z,16.66
2022-09-06T06:18:43.524Z,16.68
2022-09-06T06:19:43.528Z,16.70
2022-09-06T06:20:43.481Z,16.72
2022-09-06T06:21:43.495Z,16.75
2022-09-06T06:22:43.499Z,16.78
2022-09-06T06:23:43.467Z,16.81
2022-09-06T06:24:44.282Z,16.84
2022-09-06T06:25:43.423Z,16.87
2022-09-06T06:26:43.417Z,16.90
2022-09-06T06:27:43.424Z,16.94
2022-09-06T06:28:43.392Z,16.97
2022-09-06T06:29:43.365Z,17.00
2022-09-06T06:30:43.418Z,17.03
2022-09-06T06:31:43.391Z,17.07
2022-09-06T06:32:43.329Z,17.11
2022-09-06T06:33:43.323Z,17.14
2022-09-06T06:34:43.313Z,17.19
2022-09-06T06:35:43.307Z,17.23
2022-09-06T06:36:43.281Z,17.27
2022-09-06T06:37:43.321Z,17.30
2022-09-06T06:38:43.247Z,17.34
2022-09-06T06:39:43.318Z,17.38
2022-09-06T06:40:43.225Z,17.42
2022-09-06T06:41:43.213Z,17.46
2022-09-06T06:42:43.254Z,17.50
2022-09-06T06:43:43.200Z,17.53
2022-09-06T06:44:43.180Z,17.57
2022-09-06T06:45:43.254Z,17.60
2022-09-06T06:46:43.167Z,17.63
2022-09-06T06:47:43.130Z,17.66
2022-09-06T06:48:43.121Z,17.68
2022-09-06T06:49:43.120Z,17.69
2022-09-06T06:50:43.096Z,17.70
2022-09-06T06:51:43.078Z,17.72
2022-09-06T06:52:43.074Z,17.73
2022-09-06T06:53:43.096Z,17.75
2022-09-06T06:54:43.082Z,17.76
2022-09-06T06:55:43.032Z,17.77
2022-09-06T06:56:43.036Z,17.78
2022-09-06T06:57:43.004Z,17.79
2022-09-06T06:58:43.048Z,17.81
2022-09-06T06:59:42.993Z,17.82
2022-09-06T07:00:43.143Z,17.84
2022-09-06T07:01:43.072Z,17.85
2022-09-06T07:02:42.976Z,17.87
2022-09-06T07:03:42.929Z,17.89
2022-09-06T07:04:42.930Z,17.91
2022-09-06T07:07:42.875Z,18.00
2022-09-06T07:08:42.866Z,18.03
2022-09-06T07:10:42.840Z,18.09
2022-09-06T07:11:42.854Z,18.12
2022-09-06T07:12:42.840Z,18.16
2022-09-06T07:13:42.787Z,18.19
2022-09-06T07:14:42.801Z,18.23
2022-09-06T07:15:42.798Z,18.27
2022-09-06T07:16:42.858Z,18.30
2022-09-06T07:17:42.774Z,18.33
2022-09-06T07:18:43.692Z,18.36
2022-09-06T07:21:42.771Z,18.45
2022-09-06T07:22:42.690Z,18.47
2022-09-06T07:24:43.297Z,18.50
2022-09-06T07:25:42.935Z,18.51
2022-09-06T07:26:42.644Z,18.52
2022-09-06T07:28:42.602Z,18.54
2022-09-06T07:29:42.633Z,18.56
2022-09-06T07:30:42.617Z,18.56
2022-09-06T07:32:42.571Z,18.58
2022-09-06T07:33:42.571Z,18.59
2022-09-06T07:34:42.509Z,18.59
2022-09-06T07:35:42.493Z,18.58
2022-09-06T07:36:42.490Z,18.57
2022-09-06T07:37:42.623Z,18.56
2022-09-06T07:38:42.560Z,18.55
2022-09-06T07:39:42.464Z,18.55
2022-09-06T07:40:42.440Z,18.53
2022-09-06T07:41:42.411Z,18.52
2022-09-06T07:42:42.418Z,18.50
2022-09-06T07:43:42.497Z,18.49
2022-09-06T07:44:42.392Z,18.48
2022-09-06T07:45:42.359Z,18.48
2022-09-06T07:46:42.669Z,18.48
2022-09-06T07:47:58.873Z,18.48
2022-09-06T07:48:42.341Z,18.47
2022-09-06T07:50:49.724Z,18.44
2022-09-06T07:51:42.289Z,18.41
2022-09-06T07:53:42.266Z,18.35
2022-09-06T07:54:42.280Z,18.32
2022-09-06T07:55:42.263Z,18.28
2022-09-06T07:56:42.297Z,18.23
2022-09-06T07:57:42.204Z,18.19
2022-09-06T07:58:42.207Z,18.16
2022-09-06T07:59:43.019Z,18.12
2022-09-06T08:00:42.232Z,18.08
2022-09-06T08:01:42.291Z,18.04
2022-09-06T08:02:42.143Z,18.00
2022-09-06T08:03:42.133Z,17.97
2022-09-06T08:04:42.120Z,17.95
2022-09-06T08:07:42.084Z,17.98
2022-09-06T08:08:58.200Z,17.99
2022-09-06T08:09:42.894Z,18.00
2022-09-06T08:10:42.078Z,18.00
2022-09-06T08:11:42.026Z,18.00
2022-09-06T08:12:42.025Z,18.00
2022-09-06T08:13:42.026Z,18.00
2022-09-06T08:14:41.997Z,18.00
2022-09-06T08:15:41.984Z,18.01
2022-09-06T08:16:42.015Z,18.02
2022-09-06T08:17:41.943Z,18.05
2022-09-06T08:18:42.020Z,18.09
2022-09-06T08:19:41.923Z,18.13
2022-09-06T08:20:41.912Z,18.19
2022-09-06T08:21:41.891Z,18.25
2022-09-06T08:22:41.873Z,18.31
2022-09-06T08:23:41.864Z,18.40
2022-09-06T08:24:41.855Z,18.49
2022-09-06T08:25:41.865Z,18.59
2022-09-06T08:26:41.871Z,18.70
2022-09-06T08:27:41.818Z,18.81
2022-09-06T08:28:41.803Z,18.93
2022-09-06T08:29:41.796Z,19.02
2022-09-06T08:30:41.775Z,19.11
2022-09-06T08:31:41.812Z,19.18
2022-09-06T08:32:41.739Z,19.24
2022-09-06T08:33:41.731Z,19.29
2022-09-06T08:34:41.740Z,19.33
2022-09-06T08:35:41.709Z,19.37
2022-09-06T08:36:41.692Z,19.40
2022-09-06T08:37:41.674Z,19.43
2022-09-06T08:38:41.656Z,19.46
2022-09-06T08:39:41.746Z,19.50
2022-09-06T08:40:41.677Z,19.53
2022-09-06T08:41:41.617Z,19.56
2022-09-06T08:42:41.606Z,19.59
2022-09-06T08:43:41.610Z,19.62
2022-09-06T08:44:57.625Z,19.64
2022-09-06T08:45:41.629Z,19.65
2022-09-06T08:46:41.601Z,19.66
2022-09-06T08:47:41.586Z,19.65
2022-09-06T08:48:41.540Z,19.65
2022-09-06T08:49:41.518Z,19.65
2022-09-06T08:50:41.528Z,19.66
2022-09-06T08:51:41.486Z,19.67
2022-09-06T08:52:49.337Z,19.68
2022-09-06T08:53:41.519Z,19.70
2022-09-06T08:54:41.507Z,19.71
2022-09-06T08:55:41.486Z,19.71
2022-09-06T08:56:41.420Z,19.72
2022-09-06T08:57:41.405Z,19.72
2022-09-06T08:58:41.403Z,19.72
2022-09-06T08:59:41.379Z,19.72
2022-09-06T09:00:41.414Z,19.72
2022-09-06T09:01:41.422Z,19.71
2022-09-06T09:02:41.338Z,19.70
2022-09-06T09:03:41.481Z,19.69
2022-09-06T09:04:41.312Z,19.69
2022-09-06T09:05:41.314Z,19.69
2022-09-06T09:06:41.303Z,19.69
2022-09-06T09:07:41.273Z,19.69
2022-09-06T09:08:41.264Z,19.69
2022-09-06T09:09:41.261Z,19.70
2022-09-06T09:10:41.258Z,19.72
2022-09-06T09:11:41.233Z,19.73
2022-09-06T09:12:41.203Z,19.75
2022-09-06T09:13:41.731Z,19.76
2022-09-06T09:14:41.191Z,19.76
2022-09-06T09:15:41.164Z,19.77
2022-09-06T09:16:41.273Z,19.77
2022-09-06T09:17:41.143Z,19.78
2022-09-06T09:18:41.133Z,19.79
2022-09-06T09:19:41.121Z,19.79
2022-09-06T09:20:41.113Z,19.79
2022-09-06T09:21:47.086Z,19.80
2022-09-06T09:22:41.070Z,19.81
2022-09-06T09:23:41.055Z,19.82
2022-09-06T09:24:41.750Z,19.83
2022-09-06T09:25:41.027Z,19.83
2022-09-06T09:26:41.034Z,19.84
2022-09-06T09:27:41.004Z,19.85
2022-09-06T09:28:40.995Z,19.87
2022-09-06T09:29:41.116Z,19.90
2022-09-06T09:30:48.910Z,19.93
2022-09-06T09:31:41.036Z,19.96
2022-09-06T09:32:40.949Z,19.99
2022-09-06T09:33:40.921Z,20.04
2022-09-06T09:34:40.910Z,20.09
2022-09-06T09:35:40.891Z,20.15
2022-09-06T09:36:40.883Z,20.20
2022-09-06T09:37:49.324Z,20.25
2022-09-06T09:38:40.865Z,20.29
2022-09-06T09:39:40.870Z,20.33
2022-09-06T09:40:40.830Z,20.37
2022-09-06T09:41:40.815Z,20.42
2022-09-06T09:42:40.806Z,20.47
2022-09-06T09:43:40.787Z,20.52
2022-09-06T09:44:40.787Z,20.56
2022-09-06T09:45:40.772Z,20.60
2022-09-06T09:46:40.802Z,20.64
2022-09-06T09:47:40.738Z,20.69
2022-09-06T09:48:40.730Z,20.73
2022-09-06T09:49:40.711Z,20.77
2022-09-06T09:50:40.705Z,20.81
2022-09-06T09:51:40.704Z,20.85
2022-09-06T09:52:40.672Z,20.89
2022-09-06T09:53:40.656Z,20.93
2022-09-06T09:54:40.653Z,20.98
2022-09-06T09:55:40.636Z,21.03
2022-09-06T09:56:40.623Z,21.08
2022-09-06T09:57:40.619Z,21.12
2022-09-06T09:58:40.593Z,21.17
2022-09-06T09:59:40.584Z,21.22
2022-09-06T10:00:40.605Z,21.29
2022-09-06T10:01:40.563Z,21.35
2022-09-06T10:02:40.546Z,21.40
2022-09-06T10:05:40.509Z,21.53
2022-09-06T10:07:40.492Z,21.58
2022-09-06T10:08:40.468Z,21.60
2022-09-06T10:09:40.450Z,21.62
2022-09-06T10:10:40.454Z,21.63
2022-09-06T10:11:40.425Z,21.65
2022-09-06T10:12:40.412Z,21.67
2022-09-06T10:13:40.407Z,21.70
2022-09-06T10:14:40.380Z,21.74
2022-09-06T10:15:40.454Z,21.78
2022-09-06T10:16:40.356Z,21.82
2022-09-06T10:17:40.370Z,21.87
2022-09-06T10:18:40.344Z,21.91
2022-09-06T10:19:40.345Z,21.93
2022-09-06T10:20:40.314Z,21.94
2022-09-06T10:21:40.326Z,21.95
2022-09-06T10:22:40.278Z,21.96
2022-09-06T10:24:40.271Z,21.96
2022-09-06T10:25:40.243Z,21.95
2022-09-06T10:26:40.241Z,21.93
2022-09-06T10:27:55.550Z,21.92
2022-09-06T10:28:40.209Z,21.90
2022-09-06T10:29:40.192Z,21.88
2022-09-06T10:30:40.178Z,21.85
2022-09-06T10:31:40.202Z,21.83
2022-09-06T10:32:40.156Z,21.81
2022-09-06T10:33:40.136Z,21.80
2022-09-06T10:34:40.158Z,21.80
2022-09-06T10:35:40.113Z,21.81
2022-09-06T10:36:40.113Z,21.82
2022-09-06T10:37:40.160Z,21.85
2022-09-06T10:38:40.068Z,21.88
2022-09-06T10:39:40.109Z,21.89
2022-09-06T10:40:40.047Z,21.92
2022-09-06T10:41:40.031Z,21.94
2022-09-06T10:42:40.021Z,21.97
2022-09-06T10:43:40.004Z,22.00
2022-09-06T10:44:40.004Z,22.03
2022-09-06T10:45:39.985Z,22.07
2022-09-06T10:46:40.019Z,22.10
2022-09-06T10:47:39.951Z,22.13
2022-09-06T10:48:40.007Z,22.16
2022-09-06T10:49:39.924Z,22.18
2022-09-06T10:50:41.092Z,22.21
2022-09-06T10:51:39.896Z,22.24
2022-09-06T10:52:39.887Z,22.27
2022-09-06T10:53:39.873Z,22.32
2022-09-06T10:54:39.996Z,22.38
2022-09-06T10:55:39.867Z,22.43
2022-09-06T10:56:39.860Z,22.49
2022-09-06T10:59:39.798Z,22.64
2022-09-06T11:00:39.802Z,22.68
2022-09-06T11:01:39.905Z,22.71
2022-09-06T11:02:40.470Z,22.72
2022-09-06T11:03:58.282Z,22.74
2022-09-06T11:05:40.013Z,22.76
2022-09-06T11:06:39.703Z,22.77
2022-09-06T11:07:39.954Z,22.77
2022-09-06T11:08:47.370Z,22.76
2022-09-06T11:09:39.668Z,22.75
2022-09-06T11:10:39.661Z,22.73
2022-09-06T11:11:39.643Z,22.73
2022-09-06T11:12:39.639Z,22.74
2022-09-06T11:13:39.626Z,22.77
2022-09-06T11:14:39.603Z,22.81
2022-09-06T11:15:39.663Z,22.85
2022-09-06T11:16:39.572Z,22.88
2022-09-06T11:17:39.563Z,22.92
2022-09-06T11:18:39.557Z,22.95
2022-09-06T11:19:39.542Z,22.98
2022-09-06T11:20:39.516Z,23.02
2022-09-06T11:21:39.529Z,23.05
2022-09-06T11:22:39.499Z,23.08
2022-09-06T11:23:39.483Z,23.12
2022-09-06T11:24:39.491Z,23.17
2022-09-06T11:25:39.474Z,23.21
2022-09-06T11:26:39.442Z,23.24
2022-09-06T11:27:39.425Z,23.28
2022-09-06T11:28:39.410Z,23.32
2022-09-06T11:29:39.405Z,23.36
2022-09-06T11:30:39.419Z,23.39
2022-09-06T11:32:39.385Z,23.44
2022-09-06T11:33:39.355Z,23.47
2022-09-06T11:34:39.364Z,23.49
2022-09-06T11:35:39.325Z,23.51
2022-09-06T11:36:39.310Z,23.53
2022-09-06T11:37:39.307Z,23.58
2022-09-06T11:38:39.297Z,23.64
2022-09-06T11:40:39.261Z,23.75
2022-09-06T11:41:39.244Z,23.79
2022-09-06T11:42:39.223Z,23.83
2022-09-06T11:43:39.241Z,23.86
2022-09-06T11:44:39.245Z,23.89
2022-09-06T11:45:39.214Z,23.93
2022-09-06T11:46:39.239Z,23.96
2022-09-06T11:47:39.185Z,23.99
2022-09-06T11:48:39.160Z,24.03
2022-09-06T11:49:39.162Z,24.06
2022-09-06T11:50:39.128Z,24.07
2022-09-06T11:51:39.153Z,24.09
2022-09-06T11:52:39.095Z,24.11
2022-09-06T11:53:39.088Z,24.12
2022-09-06T11:54:39.089Z,24.13
2022-09-06T11:55:39.073Z,24.12
2022-09-06T11:56:39.047Z,24.12
2022-09-06T11:57:39.043Z,24.11
2022-09-06T11:58:39.043Z,24.12
2022-09-06T11:59:39.012Z,24.12
2022-09-06T12:00:39.041Z,24.12
2022-09-06T12:01:38.989Z,24.12
2022-09-06T12:02:39.213Z,24.13
2022-09-06T12:04:38.956Z,24.19
2022-09-06T12:05:38.963Z,24.23
2022-09-06T12:06:38.920Z,24.28
2022-09-06T12:07:39.003Z,24.32
2022-09-06T12:08:38.895Z,24.36
2022-09-06T12:09:38.893Z,24.41
2022-09-06T12:10:38.871Z,24.45
2022-09-06T12:11:38.862Z,24.49
2022-09-06T12:12:38.853Z,24.52
2022-09-06T12:13:38.841Z,24.56
2022-09-06T12:14:38.819Z,24.59
2022-09-06T12:15:38.846Z,24.62
2022-09-06T12:16:38.795Z,24.64
2022-09-06T12:17:38.794Z,24.68
2022-09-06T12:18:38.776Z,24.76
2022-09-06T12:19:42.157Z,24.85
2022-09-06T12:20:38.750Z,24.94
2022-09-06T12:21:38.744Z,25.01
2022-09-06T12:22:38.721Z,25.06
2022-09-06T12:23:38.716Z,25.08
2022-09-06T12:24:38.707Z,25.07
2022-09-06T12:25:38.749Z,25.06
2022-09-06T12:26:38.682Z,25.04
2022-09-06T12:27:38.659Z,25.04
2022-09-06T12:28:38.653Z,25.06
2022-09-06T12:29:38.646Z,25.10
2022-09-06T12:30:38.617Z,25.14
2022-09-06T12:31:38.659Z,25.18
2022-09-06T12:32:38.599Z,25.20
2022-09-06T12:33:38.584Z,25.22
2022-09-06T12:34:38.591Z,25.24
2022-09-06T12:36:38.542Z,25.33
2022-09-06T12:37:38.535Z,25.38
2022-09-06T12:38:38.513Z,25.43
2022-09-06T12:39:38.580Z,25.47
2022-09-06T12:40:38.574Z,25.51
2022-09-06T12:41:43.092Z,25.55
2022-09-06T12:42:38.468Z,25.59
2022-09-06T12:43:38.457Z,25.63
2022-09-06T12:44:38.458Z,25.67
2022-09-06T12:45:38.421Z,25.70
2022-09-06T12:46:38.495Z,25.73
2022-09-06T12:47:38.429Z,25.78
2022-09-06T12:48:38.388Z,25.86
2022-09-06T12:49:38.379Z,25.94
2022-09-06T12:50:38.354Z,26.02
2022-09-06T12:51:38.347Z,26.09
2022-09-06T12:52:39.055Z,26.15
2022-09-06T12:53:38.324Z,26.19
2022-09-06T12:54:38.299Z,26.21
2022-09-06T12:55:38.287Z,26.22
2022-09-06T12:56:38.318Z,26.25
2022-09-06T12:57:38.264Z,26.30
2022-09-06T12:58:38.270Z,26.34
2022-09-06T12:59:38.249Z,26.36
2022-09-06T13:00:38.257Z,26.36
2022-09-06T13:01:38.325Z,26.35
2022-09-06T13:02:38.332Z,26.34
2022-09-06T13:03:38.187Z,26.34
2022-09-06T13:04:38.201Z,26.36
2022-09-06T13:05:38.157Z,26.38
2022-09-06T13:06:38.144Z,26.42
2022-09-06T13:07:38.141Z,26.47
2022-09-06T13:08:38.126Z,26.53
2022-09-06T13:09:38.132Z,26.59
2022-09-06T13:10:38.098Z,26.61
2022-09-06T13:11:38.084Z,26.63
2022-09-06T13:12:38.068Z,26.64
2022-09-06T13:13:38.065Z,26.65
2022-09-06T13:14:38.062Z,26.65
2022-09-06T13:15:38.120Z,26.66